Time;durP1;ratioP1;P1;durP2;ratioP2;P2;SDS_P1;SDS_P2;PMS_P1;PMS_P2;Temp;Humidity;BMP_temperature;BMP_pressure;BME280_temperature;BME280_humidity;BME280_pressure;Samples;Min_cycle;Max_cycle;Signal;HPM_P1;HPM_P2
2023/08/23 00:00:16;;;;;;;12.90;4.30;;;;;;;-146.82;100.00;71671.09;5068551;28;20036;-84
2023/08/23 00:02:43;;;;;;;10.45;3.70;;;;;;;-146.82;100.00;71671.09;5051323;28;20024;-84
2023/08/23 00:05:15;;;;;;;9.13;3.70;;;;;;;-146.82;100.00;71671.09;5067713;28;20049;-84
2023/08/23 00:07:48;;;;;;;7.95;3.53;;;;;;;-146.82;100.00;71671.09;5053106;28;20032;-83
2023/08/23 00:10:18;;;;;;;8.32;3.22;;;;;;;-146.82;100.00;71671.09;5052965;28;20032;-83
2023/08/23 00:12:43;;;;;;;5.80;3.20;;;;;;;-146.82;100.00;71671.09;5052796;28;20051;-82
2023/08/23 00:15:09;;;;;;;9.05;4.25;;;;;;;-146.82;100.00;71671.09;5067578;28;20135;-82
2023/08/23 00:17:34;;;;;;;11.10;3.35;;;;;;;-146.82;100.00;71671.09;5067566;28;20025;-83
2023/08/23 00:20:00;;;;;;;5.78;3.50;;;;;;;-146.82;100.00;71671.09;5052477;28;20094;-82
2023/08/23 00:22:35;;;;;;;10.93;3.65;;;;;;;-146.82;100.00;71671.09;5052296;28;20075;-83
2023/08/23 00:25:00;;;;;;;6.72;3.85;;;;;;;-146.82;100.00;71671.09;5050699;28;20075;-82
2023/08/23 00:27:26;;;;;;;6.40;3.40;;;;;;;-146.82;100.00;71671.09;5051937;28;20029;-82
2023/08/23 00:30:00;;;;;;;4.72;3.67;;;;;;;-146.82;100.00;71671.09;5052451;28;20032;-82
2023/08/23 00:32:26;;;;;;;6.28;3.47;;;;;;;-146.82;100.00;71671.09;5058242;28;20048;-82
2023/08/23 00:34:51;;;;;;;8.70;4.13;;;;;;;-146.82;100.00;71671.09;5058629;28;20029;-82
2023/08/23 00:37:19;;;;;;;10.43;3.70;;;;;;;-146.82;100.00;71671.09;5058449;28;20052;-82
2023/08/23 00:39:44;;;;;;;7.30;3.55;;;;;;;-146.82;100.00;71671.09;5054328;28;20037;-82
2023/08/23 00:42:10;;;;;;;10.57;4.05;;;;;;;-146.82;100.00;71671.09;5069498;28;20090;-81
2023/08/23 00:44:37;;;;;;;8.60;3.80;;;;;;;-146.82;100.00;71671.09;5052000;28;20382;-82
2023/08/23 00:47:04;;;;;;;8.75;3.85;;;;;;;-146.82;100.00;71671.09;5053474;28;20032;-82
2023/08/23 00:49:33;;;;;;;8.52;3.88;;;;;;;-146.82;100.00;71671.09;5053484;28;20036;-83
2023/08/23 00:52:02;;;;;;;9.18;3.95;;;;;;;-146.82;100.00;71671.09;5072087;28;20028;-82
2023/08/23 00:54:27;;;;;;;8.82;3.70;;;;;;;-146.82;100.00;71671.09;5055768;28;20033;-81
2023/08/23 00:56:56;;;;;;;6.82;3.78;;;;;;;-146.82;100.00;71671.09;5056764;28;20067;-81
2023/08/23 00:59:22;;;;;;;9.60;4.20;;;;;;;-146.82;100.00;71671.09;5038999;28;20127;-83
2023/08/23 01:01:49;;;;;;;8.20;3.78;;;;;;;-146.82;100.00;71671.09;5072359;28;20025;-81
2023/08/23 01:04:14;;;;;;;8.65;3.85;;;;;;;-146.82;100.00;71671.09;5055748;28;20032;-82
2023/08/23 01:07:01;;;;;;;9.90;3.80;;;;;;;-146.82;100.00;71671.09;5056897;28;20049;-83
2023/08/23 01:09:54;;;;;;;8.30;3.78;;;;;;;-146.82;100.00;71671.09;5056016;28;20040;-83
2023/08/23 01:12:48;;;;;;;6.78;3.95;;;;;;;-146.82;100.00;71671.09;5033379;28;20033;-85
2023/08/23 01:15:17;;;;;;;8.95;4.22;;;;;;;-146.82;100.00;71671.09;5056597;28;20600;-83
2023/08/23 01:17:43;;;;;;;8.45;4.05;;;;;;;-146.82;100.00;71671.09;5055378;28;20021;-84
2023/08/23 01:20:10;;;;;;;6.32;4.05;;;;;;;-146.82;100.00;71671.09;5054168;28;20033;-84
2023/08/23 01:22:41;;;;;;;7.63;4.10;;;;;;;-146.82;100.00;71671.09;5055246;28;20370;-83
2023/08/23 01:25:08;;;;;;;8.82;4.10;;;;;;;-146.82;100.00;71671.09;5055364;28;20028;-83
2023/08/23 01:27:34;;;;;;;9.88;4.72;;;;;;;-146.82;100.00;71671.09;5070705;28;20544;-83
2023/08/23 01:30:00;;;;;;;7.40;4.35;;;;;;;-146.82;100.00;71671.09;5055687;28;20021;-83
2023/08/23 01:32:44;;;;;;;9.73;4.00;;;;;;;-146.82;100.00;71671.09;5071341;28;20040;-85
2023/08/23 01:35:21;;;;;;;11.52;4.35;;;;;;;-146.82;100.00;71671.09;5054848;28;20477;-83
2023/08/23 01:37:53;;;;;;;8.48;4.07;;;;;;;-146.82;100.00;71671.09;5055600;28;20033;-83
2023/08/23 01:40:21;;;;;;;11.82;4.50;;;;;;;-146.82;100.00;71671.09;5055323;28;20040;-83
2023/08/23 01:42:49;;;;;;;8.98;4.32;;;;;;;-146.82;100.00;71671.09;5055958;28;20025;-84
2023/08/23 01:45:15;;;;;;;8.68;4.18;;;;;;;-146.82;100.00;71671.09;5058104;28;20166;-81
2023/08/23 01:47:41;;;;;;;5.88;4.32;;;;;;;-146.82;100.00;71671.09;5073143;28;20539;-83
2023/08/23 01:50:07;;;;;;;9.23;4.47;;;;;;;-146.82;100.00;71671.09;5070332;28;20035;-84
2023/08/23 01:52:41;;;;;;;8.65;4.57;;;;;;;-146.82;100.00;71671.09;5079037;28;20043;-84
2023/08/23 01:55:08;;;;;;;10.40;4.65;;;;;;;-146.82;100.00;71671.09;5073188;28;20416;-81
2023/08/23 01:57:33;;;;;;;9.60;4.95;;;;;;;-146.82;100.00;71671.09;5055128;28;20490;-83
2023/08/23 01:59:58;;;;;;;8.07;4.45;;;;;;;-146.82;100.00;71671.09;5055111;28;20036;-81
2023/08/23 02:02:25;;;;;;;6.55;4.50;;;;;;;-146.82;100.00;71671.09;5053021;28;20057;-83
2023/08/23 02:04:50;;;;;;;10.38;4.65;;;;;;;-146.82;100.00;71671.09;5070543;28;20040;-83
2023/08/23 02:07:16;;;;;;;9.88;5.03;;;;;;;-146.82;100.00;71671.09;5070221;28;20033;-84
2023/08/23 02:09:46;;;;;;;9.13;5.22;;;;;;;-146.82;100.00;71671.09;5069982;28;20056;-84
2023/08/23 02:12:11;;;;;;;7.68;4.75;;;;;;;-146.82;100.00;71671.09;5055439;28;20059;-83
2023/08/23 02:14:37;;;;;;;7.80;5.00;;;;;;;-146.82;100.00;71671.09;5054432;28;20032;-82
2023/08/23 02:17:09;;;;;;;7.47;4.63;;;;;;;-146.82;100.00;71671.09;5071022;28;20029;-83
2023/08/23 02:19:35;;;;;;;9.27;4.90;;;;;;;-146.82;100.00;71671.09;5054835;28;20562;-82
2023/08/23 02:22:02;;;;;;;6.63;4.80;;;;;;;-146.82;100.00;71671.09;5055116;28;20013;-82
2023/08/23 02:24:28;;;;;;;11.40;5.13;;;;;;;-146.82;100.00;71671.09;5055479;28;20033;-82
2023/08/23 02:26:54;;;;;;;6.35;4.78;;;;;;;-146.82;100.00;71671.09;5071096;28;20028;-82
2023/08/23 02:29:21;;;;;;;8.80;4.97;;;;;;;-146.82;100.00;71671.09;5056583;28;20053;-82
2023/08/23 02:31:47;;;;;;;7.32;4.88;;;;;;;-146.82;100.00;71671.09;5056381;28;20023;-84
2023/08/23 02:34:14;;;;;;;8.18;4.82;;;;;;;-146.82;100.00;71671.09;5055114;28;20025;-83
2023/08/23 02:36:41;;;;;;;8.55;5.07;;;;;;;-146.82;100.00;71671.09;5071103;28;20025;-83
2023/08/23 02:39:07;;;;;;;9.57;4.82;;;;;;;-146.82;100.00;71671.09;5055938;28;20438;-83
2023/08/23 02:41:33;;;;;;;11.57;5.03;;;;;;;-146.82;100.00;71671.09;5069457;28;20044;-83
2023/08/23 02:44:00;;;;;;;14.18;6.80;;;;;;;-146.82;100.00;71671.09;5053689;28;20043;-83
2023/08/23 02:46:25;;;;;;;12.98;5.28;;;;;;;-146.82;100.00;71671.09;5055847;28;20090;-83
2023/08/23 02:48:52;;;;;;;8.20;5.40;;;;;;;-146.82;100.00;71671.09;5055102;28;20021;-83
2023/08/23 02:51:18;;;;;;;10.57;5.93;;;;;;;-146.82;100.00;71671.09;5053487;28;20183;-85
2023/08/23 02:53:45;;;;;;;9.68;5.32;;;;;;;-146.82;100.00;71671.09;5055121;28;20028;-84
2023/08/23 02:56:11;;;;;;;11.43;5.53;;;;;;;-146.82;100.00;71671.09;5055128;28;20131;-83
2023/08/23 02:58:37;;;;;;;10.70;5.20;;;;;;;-146.82;100.00;71671.09;5070474;28;20020;-83
2023/08/23 03:01:04;;;;;;;9.00;5.65;;;;;;;-146.82;100.00;71671.09;5053635;28;20032;-83
2023/08/23 03:03:30;;;;;;;13.25;5.32;;;;;;;-146.82;100.00;71671.09;5070415;28;20102;-82
2023/08/23 03:06:02;;;;;;;8.60;5.85;;;;;;;-146.82;100.00;71671.09;5053616;28;20124;-83
2023/08/23 03:08:33;;;;;;;10.10;5.70;;;;;;;-146.82;100.00;71671.09;5053973;28;20083;-82
2023/08/23 03:11:19;;;;;;;10.15;5.28;;;;;;;-146.82;100.00;71671.09;5053524;28;20053;-83
2023/08/23 03:13:46;;;;;;;9.30;5.95;;;;;;;-146.82;100.00;71671.09;5070048;28;20374;-84
2023/08/23 03:16:12;;;;;;;10.07;5.35;;;;;;;-146.82;100.00;71671.09;5057425;28;20079;-83
2023/08/23 03:18:38;;;;;;;12.77;6.10;;;;;;;-146.82;100.00;71671.09;5054538;28;20040;-83
2023/08/23 03:21:04;;;;;;;11.55;5.93;;;;;;;-146.82;100.00;71671.09;5053476;28;20425;-83
2023/08/23 03:23:30;;;;;;;11.20;6.00;;;;;;;-146.82;100.00;71671.09;5054815;28;20091;-84
2023/08/23 03:25:56;;;;;;;10.18;5.93;;;;;;;-146.82;100.00;71671.09;5054552;28;20029;-83
2023/08/23 03:28:22;;;;;;;10.57;5.78;;;;;;;-146.82;100.00;71671.09;5053169;28;20100;-82
2023/08/23 03:30:48;;;;;;;10.02;5.93;;;;;;;-146.82;100.00;71671.09;5052992;28;20056;-84
2023/08/23 03:33:14;;;;;;;11.68;6.20;;;;;;;-146.82;100.00;71671.09;5052033;28;20422;-84
2023/08/23 03:35:53;;;;;;;11.23;6.07;;;;;;;-146.82;100.00;71671.09;5068682;28;20475;-83
2023/08/23 03:38:18;;;;;;;12.98;6.15;;;;;;;-146.82;100.00;71671.09;5053024;28;20446;-83
2023/08/23 03:40:44;;;;;;;11.75;6.65;;;;;;;-146.82;100.00;71671.09;5068244;28;20049;-83
2023/08/23 03:43:09;;;;;;;9.05;5.70;;;;;;;-146.82;100.00;71671.09;5052771;28;20025;-84
2023/08/23 03:45:35;;;;;;;11.60;6.03;;;;;;;-146.82;100.00;71671.09;5051355;28;20378;-84
2023/08/23 03:48:02;;;;;;;13.40;6.30;;;;;;;-146.82;100.00;71671.09;5052835;28;20403;-83
2023/08/23 03:50:28;;;;;;;10.40;5.90;;;;;;;-146.82;100.00;71671.09;5069251;28;20558;-85
2023/08/23 03:52:56;;;;;;;15.75;6.10;;;;;;;-146.82;100.00;71671.09;5057349;28;20048;-82
2023/08/23 03:55:21;;;;;;;18.67;6.20;;;;;;;-146.82;100.00;71671.09;5058140;28;20044;-81
2023/08/23 03:57:47;;;;;;;10.65;6.22;;;;;;;-146.82;100.00;71671.09;5056631;28;20017;-82
2023/08/23 04:00:16;;;;;;;11.20;5.85;;;;;;;-146.82;100.00;71671.09;5070514;28;20033;-81
2023/08/23 04:02:43;;;;;;;11.75;6.43;;;;;;;-146.82;100.00;71671.09;5054394;28;20041;-83
2023/08/23 04:05:11;;;;;;;15.80;6.90;;;;;;;-146.82;100.00;71671.09;5069130;28;20076;-84
2023/08/23 04:07:37;;;;;;;13.93;6.38;;;;;;;-146.82;100.00;71671.09;5053807;28;20104;-82
2023/08/23 04:10:04;;;;;;;10.63;5.72;;;;;;;-146.82;100.00;71671.09;5052376;28;20067;-83
2023/08/23 04:12:30;;;;;;;17.10;6.13;;;;;;;-146.82;100.00;71671.09;5068711;28;20505;-82
2023/08/23 04:14:55;;;;;;;12.93;6.75;;;;;;;-146.82;100.00;71671.09;5069098;28;20052;-83
2023/08/23 04:17:23;;;;;;;12.52;6.60;;;;;;;-146.82;100.00;71671.09;5053479;28;20545;-84
2023/08/23 04:19:52;;;;;;;11.15;5.95;;;;;;;-146.82;100.00;71671.09;5053459;28;20062;-82
2023/08/23 04:22:17;;;;;;;9.50;6.78;;;;;;;-146.82;100.00;71671.09;5054036;28;20204;-84
2023/08/23 04:24:43;;;;;;;11.73;6.25;;;;;;;-146.82;100.00;71671.09;5054695;28;20482;-84
2023/08/23 04:27:09;;;;;;;11.00;6.25;;;;;;;-146.82;100.00;71671.09;5076155;28;20032;-84
2023/08/23 04:29:34;;;;;;;10.52;5.97;;;;;;;-146.82;100.00;71671.09;5081682;28;20029;-83
2023/08/23 04:32:00;;;;;;;10.05;5.63;;;;;;;-146.82;100.00;71671.09;5064051;28;20036;-82
2023/08/23 04:34:26;;;;;;;10.00;5.85;;;;;;;-146.82;100.00;71671.09;5064773;28;20040;-82
2023/08/23 04:36:52;;;;;;;10.65;5.22;;;;;;;-146.82;100.00;71671.09;5065536;28;20025;-84
2023/08/23 04:39:19;;;;;;;13.95;6.90;;;;;;;-146.82;100.00;71671.09;5066730;28;20117;-83
2023/08/23 04:41:45;;;;;;;12.63;5.50;;;;;;;-146.82;100.00;71671.09;5066631;28;20106;-82
2023/08/23 04:44:10;;;;;;;12.73;5.72;;;;;;;-146.82;100.00;71671.09;5061170;28;20029;-83
2023/08/23 04:46:37;;;;;;;11.82;5.90;;;;;;;-146.82;100.00;71671.09;5065443;28;20024;-84
2023/08/23 04:49:02;;;;;;;11.27;5.88;;;;;;;-146.82;100.00;71671.09;5068245;28;20027;-82
2023/08/23 04:51:29;;;;;;;10.32;6.13;;;;;;;-146.82;100.00;71671.09;5065885;28;20100;-82
2023/08/23 04:53:54;;;;;;;12.23;5.88;;;;;;;-146.82;100.00;71671.09;5065216;28;20427;-83
2023/08/23 04:56:20;;;;;;;11.20;5.65;;;;;;;-146.82;100.00;71671.09;5067471;28;20020;-82
2023/08/23 04:58:47;;;;;;;11.63;5.00;;;;;;;-146.82;100.00;71671.09;5068125;28;20102;-82
2023/08/23 05:01:15;;;;;;;8.57;5.15;;;;;;;-146.82;100.00;71671.09;5066492;28;20103;-82
2023/08/23 05:03:42;;;;;;;10.00;5.97;;;;;;;-146.82;100.00;71671.09;5055080;28;20037;-83
2023/08/23 05:06:07;;;;;;;10.23;5.32;;;;;;;-146.82;100.00;71671.09;5055107;28;20083;-84
2023/08/23 05:08:35;;;;;;;10.63;5.32;;;;;;;-146.82;100.00;71671.09;5064860;28;20051;-83
2023/08/23 05:11:02;;;;;;;12.57;5.43;;;;;;;-146.82;100.00;71671.09;5091874;28;20465;-83
2023/08/23 05:13:27;;;;;;;11.93;6.07;;;;;;;-146.82;100.00;71671.09;5073290;28;20036;-83
2023/08/23 05:15:55;;;;;;;12.80;6.22;;;;;;;-146.82;100.00;71671.09;5061810;28;20027;-80
2023/08/23 05:18:26;;;;;;;11.70;5.45;;;;;;;-146.82;100.00;71671.09;5056918;28;20041;-78
2023/08/23 05:20:59;;;;;;;9.65;5.20;;;;;;;-146.82;100.00;71671.09;5055162;28;20021;-80
2023/08/23 05:23:28;;;;;;;9.93;5.20;;;;;;;-146.82;100.00;71671.09;5071250;28;20033;-76
2023/08/23 05:25:55;;;;;;;10.60;5.80;;;;;;;-146.82;100.00;71671.09;5072264;28;20043;-79
2023/08/23 05:28:25;;;;;;;12.27;5.15;;;;;;;-146.82;100.00;71671.09;5073617;28;20029;-75
2023/08/23 05:31:02;;;;;;;12.20;5.75;;;;;;;-146.82;100.00;71671.09;5069574;28;20182;-78
2023/08/23 05:33:30;;;;;;;15.23;5.38;;;;;;;-146.82;100.00;71671.09;5057776;28;20067;-78
2023/08/23 05:35:55;;;;;;;12.90;5.93;;;;;;;-146.82;100.00;71671.09;5056097;28;20025;-77
2023/08/23 05:38:23;;;;;;;15.20;5.45;;;;;;;-146.82;100.00;71671.09;5055598;28;20048;-77
2023/08/23 05:40:51;;;;;;;7.78;4.88;;;;;;;-146.82;100.00;71671.09;5056095;28;20036;-78
2023/08/23 05:43:18;;;;;;;18.08;5.68;;;;;;;-146.82;100.00;71671.09;5071845;28;20025;-78
2023/08/23 05:45:44;;;;;;;9.98;4.78;;;;;;;-146.82;100.00;71671.09;5071579;28;20028;-77
2023/08/23 05:48:09;;;;;;;12.73;5.25;;;;;;;-146.82;100.00;71671.09;5055917;28;20029;-75
2023/08/23 05:50:40;;;;;;;7.80;4.95;;;;;;;-146.82;100.00;71671.09;5054495;28;20543;-76
2023/08/23 05:53:09;;;;;;;13.15;5.38;;;;;;;-146.82;100.00;71671.09;5054607;28;20052;-76
2023/08/23 05:55:36;;;;;;;13.15;5.20;;;;;;;-146.82;100.00;71671.09;5069934;28;20371;-78
2023/08/23 05:58:09;;;;;;;8.38;4.00;;;;;;;-146.82;100.00;71671.09;5053343;28;20082;-76
2023/08/23 06:00:34;;;;;;;9.95;4.40;;;;;;;-146.82;100.00;71671.09;5054438;28;20027;-78
2023/08/23 06:02:59;;;;;;;8.20;4.05;;;;;;;-146.82;100.00;71671.09;5052570;28;20116;-78
2023/08/23 06:05:25;;;;;;;10.00;3.85;;;;;;;-146.82;100.00;71671.09;5069672;28;20044;-77
2023/08/23 06:07:50;;;;;;;6.70;4.47;;;;;;;-146.82;100.00;71671.09;5054326;28;20071;-78
2023/08/23 06:10:25;;;;;;;11.88;4.53;;;;;;;-146.82;100.00;71671.09;5054446;28;20071;-77
2023/08/23 06:12:50;;;;;;;7.22;4.18;;;;;;;-146.82;100.00;71671.09;5054356;28;20096;-77
2023/08/23 06:15:19;;;;;;;11.85;4.55;;;;;;;-146.82;100.00;71671.09;5054404;28;20535;-77
2023/08/23 06:17:49;;;;;;;9.02;3.78;;;;;;;-146.82;100.00;71671.09;5054132;28;20082;-77
2023/08/23 06:20:16;;;;;;;11.20;4.13;;;;;;;-146.82;100.00;71671.09;5070144;28;20102;-77
2023/08/23 06:22:43;;;;;;;7.95;4.22;;;;;;;-146.82;100.00;71671.09;5055316;28;20421;-77
2023/08/23 06:25:10;;;;;;;9.88;3.80;;;;;;;-146.82;100.00;71671.09;5070645;28;20054;-80
2023/08/23 06:27:37;;;;;;;10.82;4.68;;;;;;;-146.82;100.00;71671.09;5070224;28;20025;-77
2023/08/23 06:30:04;;;;;;;8.90;4.45;;;;;;;-146.82;100.00;71671.09;5054683;28;20121;-80
2023/08/23 06:32:32;;;;;;;8.48;4.35;;;;;;;-146.82;100.00;71671.09;5052515;28;20450;-77
2023/08/23 06:34:58;;;;;;;8.45;4.22;;;;;;;-146.82;100.00;71671.09;5055240;28;20017;-78
2023/08/23 06:37:30;;;;;;;6.75;4.35;;;;;;;-146.82;100.00;71671.09;5072265;28;20036;-77
2023/08/23 06:39:55;;;;;;;9.40;4.22;;;;;;;-146.82;100.00;71671.09;5070768;28;20036;-77
2023/08/23 06:42:22;;;;;;;6.68;3.33;;;;;;;-146.82;100.00;71671.09;5074785;28;20100;-78
2023/08/23 06:44:49;;;;;;;6.97;4.00;;;;;;;-146.82;100.00;71671.09;5074510;28;20043;-77
2023/08/23 06:47:16;;;;;;;7.30;3.53;;;;;;;-146.82;100.00;71671.09;5075165;28;20493;-79
2023/08/23 06:49:44;;;;;;;9.35;3.53;;;;;;;-146.82;100.00;71671.09;5074180;28;20024;-77
2023/08/23 06:52:11;;;;;;;6.90;3.03;;;;;;;-146.82;100.00;71671.09;5074532;28;20385;-78
2023/08/23 06:54:39;;;;;;;7.68;3.13;;;;;;;-146.82;100.00;71671.09;5074600;28;20044;-78
2023/08/23 06:57:07;;;;;;;3.58;2.78;;;;;;;-146.82;100.00;71671.09;5074468;28;20029;-77
2023/08/23 06:59:33;;;;;;;8.98;3.03;;;;;;;-146.82;100.00;71671.09;5074240;28;20035;-79
2023/08/23 07:02:00;;;;;;;7.45;3.00;;;;;;;-146.82;100.00;71671.09;5072955;28;20082;-77
2023/08/23 07:04:28;;;;;;;9.75;3.47;;;;;;;-146.82;100.00;71671.09;5074815;28;20119;-76
2023/08/23 07:06:54;;;;;;;5.68;3.13;;;;;;;-146.82;100.00;71671.09;5074226;28;20119;-76
2023/08/23 07:09:19;;;;;;;5.95;2.30;;;;;;;-146.82;100.00;71671.09;5073661;28;20066;-78
2023/08/23 07:11:46;;;;;;;5.47;2.88;;;;;;;-146.82;100.00;71671.09;5074125;28;20026;-76
2023/08/23 07:14:12;;;;;;;2.30;1.80;;;;;;;-146.82;100.00;71671.09;5074791;28;20124;-76
2023/08/23 07:16:52;;;;;;;5.90;2.20;;;;;;;-146.82;100.00;71671.09;5071818;28;20128;-77
2023/08/23 07:19:18;;;;;;;5.03;2.42;;;;;;;-146.82;100.00;71671.09;5074013;28;20489;-77
2023/08/23 07:21:43;;;;;;;4.18;1.92;;;;;;;-146.82;100.00;71671.09;5071970;28;20107;-79
2023/08/23 07:24:08;;;;;;;3.15;1.70;;;;;;;-146.82;100.00;71671.09;5071462;28;20035;-76
2023/08/23 07:26:36;;;;;;;4.90;2.22;;;;;;;-146.82;100.00;71671.09;5072416;28;20024;-76
2023/08/23 07:29:01;;;;;;;6.18;1.70;;;;;;;-146.82;100.00;71671.09;5073818;28;20377;-77
2023/08/23 07:31:33;;;;;;;5.10;2.00;;;;;;;-146.82;100.00;71671.09;5073195;28;20036;-77
2023/08/23 07:33:58;;;;;;;5.15;2.15;;;;;;;-146.82;100.00;71671.09;5072480;28;20478;-76
2023/08/23 07:36:26;;;;;;;3.95;2.50;;;;;;;-146.82;100.00;71671.09;5072384;28;20031;-75
2023/08/23 07:38:51;;;;;;;6.82;2.13;;;;;;;-146.82;100.00;71671.09;5072402;28;20065;-77
2023/08/23 07:41:16;;;;;;;7.35;1.90;;;;;;;-146.82;100.00;71671.09;5087356;28;20123;-75
2023/08/23 07:43:45;;;;;;;4.80;1.70;;;;;;;-146.82;100.00;71671.09;5088084;28;20028;-77
2023/08/23 07:46:10;;;;;;;4.15;1.48;;;;;;;-146.82;100.00;71671.09;5072832;28;20013;-75
2023/08/23 07:48:38;;;;;;;9.57;1.83;;;;;;;-146.82;100.00;71671.09;5072587;28;20024;-76
2023/08/23 07:51:07;;;;;;;7.72;1.67;;;;;;;-146.82;100.00;71671.09;5073227;28;20071;-76
2023/08/23 07:53:37;;;;;;;5.10;1.90;;;;;;;-146.82;100.00;71671.09;5073093;28;20020;-78
2023/08/23 07:56:03;;;;;;;3.55;1.60;;;;;;;-146.82;100.00;71671.09;5073504;28;20032;-77
2023/08/23 07:58:28;;;;;;;6.30;1.92;;;;;;;-146.82;100.00;71671.09;5089336;28;20037;-76
2023/08/23 08:00:55;;;;;;;5.10;1.75;;;;;;;-146.82;100.00;71671.09;5072624;28;20141;-77
2023/08/23 08:03:21;;;;;;;4.00;1.63;;;;;;;-146.82;100.00;71671.09;5073527;28;20031;-76
2023/08/23 08:05:47;;;;;;;2.47;1.40;;;;;;;-146.82;100.00;71671.09;5071910;28;20043;-77
2023/08/23 08:08:12;;;;;;;5.40;1.50;;;;;;;-146.82;100.00;71671.09;5089128;28;20025;-77
2023/08/23 08:10:38;;;;;;;2.60;1.45;;;;;;;-146.82;100.00;71671.09;5072275;28;20451;-75
2023/08/23 08:13:05;;;;;;;5.75;2.00;;;;;;;-146.82;100.00;71671.09;5072920;28;20040;-76
2023/08/23 08:15:31;;;;;;;6.45;1.75;;;;;;;-146.82;100.00;71671.09;5073562;28;20028;-77
2023/08/23 08:17:57;;;;;;;4.57;1.48;;;;;;;-146.82;100.00;71671.09;5073590;28;20025;-77
2023/08/23 08:20:35;;;;;;;6.88;1.83;;;;;;;-146.82;100.00;71671.09;5073495;28;20099;-76
2023/08/23 08:23:00;;;;;;;3.00;1.70;;;;;;;-146.82;100.00;71671.09;5073031;28;20028;-76
2023/08/23 08:25:27;;;;;;;3.53;1.70;;;;;;;-146.82;100.00;71671.09;5073557;28;20017;-78
2023/08/23 08:27:52;;;;;;;3.55;2.10;;;;;;;-146.82;100.00;71671.09;5073356;28;20474;-77
2023/08/23 08:30:19;;;;;;;4.82;1.52;;;;;;;-146.82;100.00;71671.09;5073431;28;20108;-75
2023/08/23 08:32:46;;;;;;;3.80;1.42;;;;;;;-146.82;100.00;71671.09;5073127;28;20024;-77
2023/08/23 08:35:14;;;;;;;5.30;1.77;;;;;;;-146.82;100.00;71671.09;5072987;28;20115;-76
2023/08/23 08:37:41;;;;;;;2.72;1.50;;;;;;;-146.82;100.00;71671.09;5069953;28;20036;-76
2023/08/23 08:40:07;;;;;;;4.80;1.60;;;;;;;-146.82;100.00;71671.09;5073303;28;20044;-77
2023/08/23 08:42:33;;;;;;;3.63;1.23;;;;;;;-146.82;100.00;71671.09;5071307;28;20127;-76
2023/08/23 08:44:58;;;;;;;2.60;1.58;;;;;;;-146.82;100.00;71671.09;5071858;28;20109;-77
2023/08/23 08:47:24;;;;;;;4.55;1.67;;;;;;;-146.82;100.00;71671.09;5072709;28;20020;-77
2023/08/23 08:49:49;;;;;;;5.57;1.60;;;;;;;-146.82;100.00;71671.09;5072816;28;20020;-75
2023/08/23 08:52:19;;;;;;;3.20;1.40;;;;;;;-146.82;100.00;71671.09;5071763;28;20082;-77
2023/08/23 08:54:47;;;;;;;3.35;1.55;;;;;;;-146.82;100.00;71671.09;5072903;28;20032;-77
2023/08/23 08:57:15;;;;;;;1.95;1.30;;;;;;;-146.82;100.00;71671.09;5071714;28;20032;-77
2023/08/23 08:59:44;;;;;;;4.45;1.20;;;;;;;-146.82;100.00;71671.09;5072939;28;20100;-75
2023/08/23 09:02:26;;;;;;;8.02;1.85;;;;;;;-146.82;100.00;71671.09;5073176;28;20028;-78
2023/08/23 09:04:54;;;;;;;2.35;1.30;;;;;;;-146.82;100.00;71671.09;5068421;28;20090;-75
2023/08/23 09:07:22;;;;;;;1.77;1.25;;;;;;;-146.82;100.00;71671.09;5088753;28;20028;-78
2023/08/23 09:09:48;;;;;;;4.47;1.52;;;;;;;-146.82;100.00;71671.09;5071196;28;20036;-78
2023/08/23 09:12:14;;;;;;;5.47;1.98;;;;;;;-146.82;100.00;71671.09;5088033;28;20048;-77
2023/08/23 09:14:40;;;;;;;3.78;1.65;;;;;;;-146.82;100.00;71671.09;5075167;28;20028;-77
2023/08/23 09:17:08;;;;;;;3.72;1.33;;;;;;;-146.82;100.00;71671.09;5092001;28;20033;-76
2023/08/23 09:19:36;;;;;;;3.65;1.50;;;;;;;-146.82;100.00;71671.09;5092340;28;20060;-76
2023/08/23 09:22:05;;;;;;;2.22;1.33;;;;;;;-146.82;100.00;71671.09;5076298;28;20036;-77
2023/08/23 09:24:31;;;;;;;4.05;1.85;;;;;;;-146.82;100.00;71671.09;5090727;28;20048;-77
2023/08/23 09:26:58;;;;;;;4.50;1.75;;;;;;;-146.82;100.00;71671.09;5076296;28;20496;-76
2023/08/23 09:29:25;;;;;;;5.43;1.63;;;;;;;-146.82;100.00;71671.09;5076346;28;20099;-76
2023/08/23 09:31:51;;;;;;;5.05;2.10;;;;;;;-146.82;100.00;71671.09;5091930;28;20036;-77
2023/08/23 09:34:25;;;;;;;5.40;2.20;;;;;;;-146.82;100.00;71671.09;5092029;28;20052;-76
2023/08/23 09:36:51;;;;;;;8.57;1.90;;;;;;;-146.82;100.00;71671.09;5074687;28;20051;-78
2023/08/23 09:39:20;;;;;;;2.83;1.50;;;;;;;-146.82;100.00;71671.09;5076026;28;20389;-75
2023/08/23 09:41:46;;;;;;;4.43;1.58;;;;;;;-146.82;100.00;71671.09;5091434;28;20032;-78
2023/08/23 09:44:13;;;;;;;2.05;1.50;;;;;;;-146.82;100.00;71671.09;5076197;28;20029;-76
2023/08/23 09:46:53;;;;;;;2.30;1.38;;;;;;;-146.82;100.00;71671.09;5074722;28;20047;-76
2023/08/23 09:49:21;;;;;;;4.43;1.77;;;;;;;-146.82;100.00;71671.09;5057984;28;20025;-76
2023/08/23 09:51:56;;;;;;;9.43;2.60;;;;;;;-146.82;100.00;71671.09;5057888;28;20035;-76
2023/08/23 09:54:30;;;;;;;6.50;1.50;;;;;;;-146.82;100.00;71671.09;5074466;28;20114;-75
2023/08/23 09:56:56;;;;;;;7.15;1.70;;;;;;;-146.82;100.00;71671.09;5057862;28;20473;-74
2023/08/23 09:59:23;;;;;;;2.50;1.75;;;;;;;-146.82;100.00;71671.09;5091479;28;20381;-78
2023/08/23 10:02:04;;;;;;;5.05;1.50;;;;;;;-146.82;100.00;71671.09;5074245;28;20032;-75
2023/08/23 10:04:30;;;;;;;2.05;1.40;;;;;;;-146.82;100.00;71671.09;5073928;28;20024;-76
2023/08/23 10:06:58;;;;;;;4.80;1.60;;;;;;;-146.82;100.00;71671.09;5075826;28;20035;-75
2023/08/23 10:09:40;;;;;;;4.45;1.50;;;;;;;-146.82;100.00;71671.09;5076197;28;20047;-79
2023/08/23 10:12:06;;;;;;;3.55;1.70;;;;;;;-146.82;100.00;71671.09;5057601;28;20037;-77
2023/08/23 10:14:44;;;;;;;4.05;1.65;;;;;;;-146.82;100.00;71671.09;5074218;28;20028;-74
2023/08/23 10:17:10;;;;;;;6.88;1.92;;;;;;;-146.82;100.00;71671.09;5057420;28;20052;-78
2023/08/23 10:19:37;;;;;;;5.15;1.80;;;;;;;-146.82;100.00;71671.09;5091182;28;20090;-77
2023/08/23 10:22:04;;;;;;;3.95;1.70;;;;;;;-146.82;100.00;71671.09;5074032;28;20441;-77
2023/08/23 10:24:34;;;;;;;2.40;1.60;;;;;;;-146.82;100.00;71671.09;5073825;28;20086;-76
2023/08/23 10:27:08;;;;;;;3.58;1.60;;;;;;;-146.82;100.00;71671.09;5090897;28;20040;-75
2023/08/23 10:29:38;;;;;;;5.72;1.70;;;;;;;-146.82;100.00;71671.09;5075165;28;20040;-76
2023/08/23 10:32:21;;;;;;;6.88;1.85;;;;;;;-146.82;100.00;71671.09;5073836;28;20540;-77
2023/08/23 10:34:46;;;;;;;3.40;1.33;;;;;;;-146.82;100.00;71671.09;5075443;28;20025;-78
2023/08/23 10:37:19;;;;;;;2.72;1.50;;;;;;;-146.82;100.00;71671.09;5074965;28;20025;-78
2023/08/23 10:39:55;;;;;;;2.63;1.33;;;;;;;-146.82;100.00;71671.09;5073509;28;20477;-76
2023/08/23 10:42:21;;;;;;;3.22;1.60;;;;;;;-146.82;100.00;71671.09;5089894;28;20048;-77
2023/08/23 10:45:09;;;;;;;4.72;1.70;;;;;;;-146.82;100.00;71671.09;5090551;28;20024;-77
2023/08/23 10:47:51;;;;;;;6.05;1.92;;;;;;;-146.82;100.00;71671.09;5086060;28;20473;-75
2023/08/23 10:50:23;;;;;;;3.30;1.70;;;;;;;-146.82;100.00;71671.09;5074684;28;20168;-75
2023/08/23 10:53:04;;;;;;;3.33;1.90;;;;;;;-146.82;100.00;71671.09;5072930;28;20089;-76
2023/08/23 10:55:30;;;;;;;6.25;1.80;;;;;;;-146.82;100.00;71671.09;5073549;28;20469;-78
2023/08/23 10:57:57;;;;;;;5.18;1.50;;;;;;;-146.82;100.00;71671.09;5073411;28;20021;-75
2023/08/23 11:00:28;;;;;;;2.80;1.67;;;;;;;-146.82;100.00;71671.09;5073464;28;20029;-77
2023/08/23 11:02:56;;;;;;;5.40;1.90;;;;;;;-146.82;100.00;71671.09;5105717;28;20044;-78
2023/08/23 11:05:23;;;;;;;5.45;1.50;;;;;;;-146.82;100.00;71671.09;5105647;28;20490;-77
2023/08/23 11:07:49;;;;;;;2.20;1.40;;;;;;;-146.82;100.00;71671.09;5089291;28;20040;-77
2023/08/23 11:10:15;;;;;;;4.53;1.63;;;;;;;-146.82;100.00;71671.09;5074278;28;20032;-76